Time;durP1;ratioP1;P1;durP2;ratioP2;P2;SDS_P1;SDS_P2;PMS_P1;PMS_P2;Temp;Humidity;BMP_temperature;BMP_pressure;BME280_temperature;BME280_humidity;BME280_pressure;Samples;Min_cycle;Max_cycle;Signal;HPM_P1;HPM_P2
2022/10/20 00:01:12;;;;;;;;;;;10.40;99.90;;;;;;5092235;28;20343;-73
2022/10/20 00:03:40;;;;;;;;;;;10.40;99.90;;;;;;5091938;28;19974;-73
2022/10/20 00:06:09;;;;;;;;;;;10.30;99.90;;;;;;5092327;28;20065;-72
2022/10/20 00:08:38;;;;;;;;;;;10.30;99.90;;;;;;5091338;28;20005;-72
2022/10/20 00:11:06;;;;;;;;;;;10.30;99.90;;;;;;5092026;28;19978;-73
2022/10/20 00:13:34;;;;;;;;;;;10.30;99.90;;;;;;5092077;28;19972;-73
2022/10/20 00:16:02;;;;;;;;;;;10.30;99.90;;;;;;5092095;28;19974;-73
2022/10/20 00:18:30;;;;;;;;;;;10.30;99.90;;;;;;5091926;28;19974;-74
2022/10/20 00:20:58;;;;;;;;;;;10.30;99.90;;;;;;5091556;28;20453;-72
2022/10/20 00:23:26;;;;;;;;;;;10.30;99.90;;;;;;5091848;28;20436;-73
2022/10/20 00:26:04;;;;;;;;;;;10.30;99.90;;;;;;5091934;28;19972;-73
2022/10/20 00:28:32;;;;;;;;;;;10.20;99.90;;;;;;5091824;28;19974;-73
2022/10/20 00:31:00;;;;;;;;;;;10.20;99.90;;;;;;5091466;28;19968;-73
2022/10/20 00:33:27;;;;;;;;;;;10.20;99.90;;;;;;5092287;28;19971;-73
2022/10/20 00:35:58;;;;;;;;;;;10.20;99.90;;;;;;5091830;28;19972;-73
2022/10/20 00:38:26;;;;;;;;;;;10.10;99.90;;;;;;5091549;28;19968;-73
2022/10/20 00:40:54;;;;;;;;;;;10.10;99.90;;;;;;5091639;28;19971;-73
2022/10/20 00:43:23;;;;;;;;;;;10.10;99.90;;;;;;5091818;28;19982;-73
2022/10/20 00:45:52;;;;;;;;;;;10.10;99.90;;;;;;5091606;28;19968;-73
2022/10/20 00:48:23;;;;;;;;;;;10.00;99.90;;;;;;5091851;28;19976;-74
2022/10/20 00:50:52;;;;;;;;;;;10.00;99.90;;;;;;5091815;28;19977;-73
2022/10/20 00:53:22;;;;;;;;;;;10.00;99.90;;;;;;5091720;28;20720;-73
2022/10/20 00:55:50;;;;;;;;;;;10.00;99.90;;;;;;5091745;28;19971;-73
2022/10/20 00:58:19;;;;;;;;;;;10.00;99.90;;;;;;5091930;28;19974;-72
2022/10/20 01:00:50;;;;;;;;;;;10.00;99.90;;;;;;5091468;28;19967;-70
2022/10/20 01:03:20;;;;;;;;;;;9.90;99.90;;;;;;5091720;28;19967;-72
2022/10/20 01:05:48;;;;;;;;;;;9.90;99.90;;;;;;5091095;28;19971;-73
2022/10/20 01:08:15;;;;;;;;;;;10.00;99.90;;;;;;5091105;28;19978;-73
2022/10/20 01:10:49;;;;;;;;;;;9.90;99.90;;;;;;5091682;28;20066;-73
2022/10/20 01:13:22;;;;;;;;;;;9.90;99.90;;;;;;5095329;28;19967;-72
2022/10/20 01:15:57;;;;;;;;;;;9.90;99.90;;;;;;5095227;28;20073;-73
2022/10/20 01:18:29;;;;;;;;;;;9.90;99.90;;;;;;5094836;28;20020;-73
2022/10/20 01:21:08;;;;;;;;;;;9.80;99.90;;;;;;5094860;28;19972;-73
2022/10/20 01:24:06;;;;;;;;;;;9.80;99.90;;;;;;5094711;28;20074;-73
2022/10/20 01:26:41;;;;;;;;;;;9.80;99.90;;;;;;5094840;28;19971;-72
2022/10/20 01:29:12;;;;;;;;;;;9.80;99.90;;;;;;5094538;28;20007;-73
2022/10/20 01:31:42;;;;;;;;;;;9.80;99.90;;;;;;5094726;28;19971;-72
2022/10/20 01:34:13;;;;;;;;;;;9.70;99.90;;;;;;5094821;28;20066;-72
2022/10/20 01:36:43;;;;;;;;;;;9.70;99.90;;;;;;5094842;28;19972;-74
2022/10/20 01:39:14;;;;;;;;;;;9.70;99.90;;;;;;5094719;28;19971;-74
2022/10/20 01:41:43;;;;;;;;;;;9.70;99.90;;;;;;5094409;28;20032;-76
2022/10/20 01:44:14;;;;;;;;;;;9.70;99.90;;;;;;5094302;28;20015;-75
2022/10/20 01:46:42;;;;;;;;;;;9.70;99.90;;;;;;5094521;28;19974;-76
2022/10/20 01:49:10;;;;;;;;;;;9.70;99.90;;;;;;5093982;28;20021;-74
2022/10/20 01:51:38;;;;;;;;;;;9.70;99.90;;;;;;5094333;28;19971;-76
2022/10/20 01:54:06;;;;;;;;;;;9.70;99.90;;;;;;5094110;28;20033;-74
2022/10/20 01:56:36;;;;;;;;;;;9.70;99.90;;;;;;5094435;28;20013;-75
2022/10/20 01:59:22;;;;;;;;;;;9.70;99.90;;;;;;5094619;28;20003;-75
2022/10/20 02:01:58;;;;;;;;;;;9.70;99.90;;;;;;5094105;28;20482;-75
2022/10/20 02:04:28;;;;;;;;;;;9.60;99.90;;;;;;5093880;28;19972;-74
2022/10/20 02:06:58;;;;;;;;;;;9.60;99.90;;;;;;5093760;28;20058;-74
2022/10/20 02:09:33;;;;;;;;;;;9.60;99.90;;;;;;5094199;28;20495;-75
2022/10/20 02:12:04;;;;;;;;;;;9.70;99.90;;;;;;5094114;28;20510;-75
2022/10/20 02:14:32;;;;;;;;;;;9.60;99.90;;;;;;5093806;28;20082;-74
2022/10/20 02:17:04;;;;;;;;;;;9.60;99.90;;;;;;5093903;28;20058;-75
2022/10/20 02:19:33;;;;;;;;;;;9.60;99.90;;;;;;5093919;28;20505;-73
2022/10/20 02:22:01;;;;;;;;;;;9.60;99.90;;;;;;5093745;28;19967;-74
2022/10/20 02:24:31;;;;;;;;;;;9.50;99.90;;;;;;5093434;28;19967;-74
2022/10/20 02:27:02;;;;;;;;;;;9.50;99.90;;;;;;5093782;28;20320;-74
2022/10/20 02:29:32;;;;;;;;;;;9.50;99.90;;;;;;5093503;28;19999;-74
2022/10/20 02:32:00;;;;;;;;;;;9.50;99.90;;;;;;5093748;28;20020;-75
2022/10/20 02:34:29;;;;;;;;;;;9.50;99.90;;;;;;5093149;28;19967;-74
2022/10/20 02:36:57;;;;;;;;;;;9.40;99.90;;;;;;5093694;28;20399;-75
2022/10/20 02:39:26;;;;;;;;;;;9.50;99.90;;;;;;5093514;28;20036;-74
2022/10/20 02:41:54;;;;;;;;;;;9.40;99.90;;;;;;5093173;28;20054;-74
2022/10/20 02:44:22;;;;;;;;;;;9.50;99.90;;;;;;5093183;28;20050;-73
2022/10/20 02:46:50;;;;;;;;;;;9.50;99.90;;;;;;5092997;28;20483;-73
2022/10/20 02:49:19;;;;;;;;;;;9.50;99.90;;;;;;5093243;28;20036;-73
2022/10/20 02:51:48;;;;;;;;;;;9.50;99.90;;;;;;5092985;28;20516;-73
2022/10/20 02:54:16;;;;;;;;;;;9.50;99.90;;;;;;5092852;28;20058;-73
2022/10/20 02:56:43;;;;;;;;;;;9.50;99.90;;;;;;5093093;28;20066;-73
2022/10/20 02:59:12;;;;;;;;;;;9.50;99.90;;;;;;5093085;28;19967;-72
2022/10/20 03:01:40;;;;;;;;;;;9.50;99.90;;;;;;5093077;28;19972;-73
2022/10/20 03:04:08;;;;;;;;;;;9.50;99.90;;;;;;5070964;28;19972;-73
2022/10/20 03:06:35;;;;;;;;;;;9.50;99.90;;;;;;5072436;28;19968;-73
2022/10/20 03:09:05;;;;;;;;;;;9.50;99.90;;;;;;5072681;28;19968;-73
2022/10/20 03:11:33;;;;;;;;;;;9.50;99.90;;;;;;5072389;28;19975;-73
2022/10/20 03:14:00;;;;;;;;;;;9.50;99.90;;;;;;5072114;28;19968;-73
2022/10/20 03:16:28;;;;;;;;;;;9.50;99.90;;;;;;5072529;28;19971;-73
2022/10/20 03:18:56;;;;;;;;;;;9.50;99.90;;;;;;5072443;28;20058;-73
2022/10/20 03:21:30;;;;;;;;;;;9.50;99.90;;;;;;5072281;28;20090;-73
2022/10/20 03:23:58;;;;;;;;;;;9.40;99.90;;;;;;5072163;28;19968;-73
2022/10/20 03:26:27;;;;;;;;;;;9.40;99.90;;;;;;5072404;28;19971;-73
2022/10/20 03:28:55;;;;;;;;;;;9.50;99.90;;;;;;5072247;28;20457;-73
2022/10/20 03:31:23;;;;;;;;;;;9.50;99.90;;;;;;5072000;28;19968;-73
2022/10/20 03:33:50;;;;;;;;;;;9.40;99.90;;;;;;5071413;28;19998;-72
2022/10/20 03:36:18;;;;;;;;;;;9.50;99.90;;;;;;5072340;28;19976;-73
2022/10/20 03:38:46;;;;;;;;;;;9.50;99.90;;;;;;5072265;28;20421;-73
2022/10/20 03:41:13;;;;;;;;;;;9.50;99.90;;;;;;5071987;28;20425;-73
2022/10/20 03:43:42;;;;;;;;;;;9.50;99.90;;;;;;5071868;28;20432;-73
2022/10/20 03:46:11;;;;;;;;;;;9.50;99.90;;;;;;5071949;28;19972;-73
2022/10/20 03:48:39;;;;;;;;;;;9.50;99.90;;;;;;5072147;28;19968;-73
2022/10/20 03:51:07;;;;;;;;;;;9.50;99.90;;;;;;5071979;28;20059;-73
2022/10/20 03:53:35;;;;;;;;;;;9.50;99.90;;;;;;5072028;28;19972;-73
2022/10/20 03:56:05;;;;;;;;;;;9.50;99.90;;;;;;5072202;28;20062;-73
2022/10/20 03:58:33;;;;;;;;;;;9.50;99.90;;;;;;5072065;28;19967;-71
2022/10/20 04:01:02;;;;;;;;;;;9.50;99.90;;;;;;5072052;28;20345;-73
2022/10/20 04:03:29;;;;;;;;;;;9.50;99.90;;;;;;5071704;28;19968;-73
2022/10/20 04:05:57;;;;;;;;;;;9.50;99.90;;;;;;5091277;28;19967;-73
2022/10/20 04:08:25;;;;;;;;;;;9.50;99.90;;;;;;5091730;28;19967;-73
2022/10/20 04:10:53;;;;;;;;;;;9.50;99.90;;;;;;5091846;28;19972;-72
2022/10/20 04:13:20;;;;;;;;;;;9.50;99.90;;;;;;5091724;28;20478;-73
2022/10/20 04:15:48;;;;;;;;;;;9.50;99.90;;;;;;5092090;28;19971;-73
2022/10/20 04:18:17;;;;;;;;;;;9.50;99.90;;;;;;5092156;28;20410;-73
2022/10/20 04:20:46;;;;;;;;;;;9.50;99.90;;;;;;5091684;28;20011;-71
2022/10/20 04:23:14;;;;;;;;;;;9.50;99.90;;;;;;5091708;28;19974;-73
2022/10/20 04:25:46;;;;;;;;;;;9.50;99.90;;;;;;5091783;28;20045;-73
2022/10/20 04:28:14;;;;;;;;;;;9.50;99.90;;;;;;5091627;28;20504;-73
2022/10/20 04:30:41;;;;;;;;;;;9.50;99.90;;;;;;5091598;28;20428;-74
2022/10/20 04:33:09;;;;;;;;;;;9.50;99.90;;;;;;5092522;28;19971;-72
2022/10/20 04:35:38;;;;;;;;;;;9.50;99.90;;;;;;5091907;28;19977;-73
2022/10/20 04:38:06;;;;;;;;;;;9.50;99.90;;;;;;5091811;28;20020;-73
2022/10/20 04:40:34;;;;;;;;;;;9.60;99.90;;;;;;5091427;28;19968;-73
2022/10/20 04:43:02;;;;;;;;;;;9.50;99.90;;;;;;5092118;28;19974;-73
2022/10/20 04:45:29;;;;;;;;;;;9.50;99.90;;;;;;5091744;28;20470;-73
2022/10/20 04:47:57;;;;;;;;;;;9.50;99.90;;;;;;5095613;28;20011;-73
2022/10/20 04:50:25;;;;;;;;;;;9.50;99.90;;;;;;5095153;28;20058;-73
2022/10/20 04:52:54;;;;;;;;;;;9.50;99.90;;;;;;5095523;28;19967;-73
2022/10/20 04:55:22;;;;;;;;;;;9.50;99.90;;;;;;5095577;28;19971;-73
2022/10/20 04:57:49;;;;;;;;;;;9.50;99.90;;;;;;5095303;28;20062;-73
2022/10/20 05:00:17;;;;;;;;;;;9.50;99.90;;;;;;5094939;28;19972;-73
2022/10/20 05:02:45;;;;;;;;;;;9.50;99.90;;;;;;5095261;28;20009;-73
2022/10/20 05:05:12;;;;;;;;;;;9.50;99.90;;;;;;5118363;22;19967;-64
2022/10/20 05:07:40;;;;;;;;;;;9.50;99.90;;;;;;5092886;28;19977;-64
2022/10/20 05:10:09;;;;;;;;;;;9.50;99.90;;;;;;5094570;28;19972;-64
2022/10/20 05:12:37;;;;;;;;;;;9.50;99.90;;;;;;5094957;28;19967;-63
2022/10/20 05:15:06;;;;;;;;;;;9.50;99.90;;;;;;5094942;28;19967;-64
2022/10/20 05:17:33;;;;;;;;;;;9.50;99.90;;;;;;5094991;28;19971;-64
2022/10/20 05:20:01;;;;;;;;;;;9.60;99.90;;;;;;5094385;28;19977;-64
2022/10/20 05:22:30;;;;;;;;;;;9.60;99.90;;;;;;5094837;28;19975;-63
2022/10/20 05:24:58;;;;;;;;;;;9.60;99.90;;;;;;5094643;28;19968;-64
2022/10/20 05:27:47;;;;;;;;;;;9.60;99.90;;;;;;5094600;28;20053;-63
2022/10/20 05:30:15;;;;;;;;;;;9.60;99.90;;;;;;5093943;28;20469;-63
2022/10/20 05:32:43;;;;;;;;;;;9.60;99.90;;;;;;5094621;28;19974;-64
2022/10/20 05:35:10;;;;;;;;;;;9.60;99.90;;;;;;5094305;28;19972;-64
2022/10/20 05:37:38;;;;;;;;;;;9.60;99.90;;;;;;5094462;28;19976;-63
2022/10/20 05:40:06;;;;;;;;;;;9.70;99.90;;;;;;5093929;28;20468;-63
2022/10/20 05:42:34;;;;;;;;;;;9.60;99.90;;;;;;5094533;28;20346;-63
2022/10/20 05:45:04;;;;;;;;;;;9.70;99.90;;;;;;5094229;28;19994;-63
2022/10/20 05:47:33;;;;;;;;;;;9.60;99.90;;;;;;5094149;28;20030;-64
2022/10/20 05:50:00;;;;;;;;;;;9.60;99.90;;;;;;5093806;28;19974;-63
2022/10/20 05:52:28;;;;;;;;;;;9.70;99.90;;;;;;5094164;28;20029;-64
2022/10/20 05:54:56;;;;;;;;;;;9.60;99.90;;;;;;5094057;28;19971;-63
2022/10/20 05:57:23;;;;;;;;;;;9.70;99.90;;;;;;5093756;28;19977;-64
2022/10/20 05:59:51;;;;;;;;;;;9.70;99.90;;;;;;5093606;28;19968;-63
2022/10/20 06:02:21;;;;;;;;;;;9.70;99.90;;;;;;5093939;28;19978;-64
2022/10/20 06:04:48;;;;;;;;;;;9.70;99.90;;;;;;5093555;28;20054;-64
2022/10/20 06:07:16;;;;;;;;;;;9.70;99.90;;;;;;5093648;28;19986;-64
2022/10/20 06:09:44;;;;;;;;;;;9.60;99.90;;;;;;5093364;28;19974;-63
2022/10/20 06:12:11;;;;;;;;;;;9.70;99.90;;;;;;5093883;28;19971;-63
2022/10/20 06:14:39;;;;;;;;;;;9.70;99.90;;;;;;5093684;28;19971;-63
2022/10/20 06:17:07;;;;;;;;;;;9.70;99.90;;;;;;5093898;28;20400;-63
2022/10/20 06:19:36;;;;;;;;;;;9.70;99.90;;;;;;5093297;28;19967;-63
2022/10/20 06:22:04;;;;;;;;;;;9.70;99.90;;;;;;5093552;28;19967;-64
2022/10/20 06:24:33;;;;;;;;;;;9.70;99.90;;;;;;5093556;28;20125;-63
2022/10/20 06:27:01;;;;;;;;;;;9.70;99.90;;;;;;5093431;28;20026;-63
2022/10/20 06:29:29;;;;;;;;;;;9.80;99.90;;;;;;5093277;28;19967;-64
2022/10/20 06:31:56;;;;;;;;;;;9.80;99.90;;;;;;5093259;28;19997;-64
2022/10/20 06:34:25;;;;;;;;;;;9.80;99.90;;;;;;5093336;28;19967;-64
2022/10/20 06:36:54;;;;;;;;;;;9.80;99.90;;;;;;5093399;28;19967;-63
2022/10/20 06:39:23;;;;;;;;;;;9.80;99.90;;;;;;5093183;28;20369;-64
2022/10/20 06:41:51;;;;;;;;;;;9.80;99.90;;;;;;5092849;28;19968;-63
2022/10/20 06:44:20;;;;;;;;;;;9.90;99.90;;;;;;5093022;28;19986;-64
2022/10/20 06:46:48;;;;;;;;;;;9.90;99.90;;;;;;5093257;28;19971;-63
2022/10/20 06:49:15;;;;;;;;;;;10.00;99.90;;;;;;5092976;28;20062;-63
2022/10/20 06:51:43;;;;;;;;;;;10.00;99.90;;;;;;5092808;28;19974;-63
2022/10/20 06:54:12;;;;;;;;;;;10.00;99.90;;;;;;5092835;28;20432;-63
2022/10/20 06:56:40;;;;;;;;;;;10.10;99.90;;;;;;5092965;28;19971;-63
2022/10/20 06:59:08;;;;;;;;;;;10.10;99.90;;;;;;5093120;28;20439;-63
2022/10/20 07:01:36;;;;;;;;;;;10.20;99.90;;;;;;5092478;28;19968;-64
2022/10/20 07:04:05;;;;;;;;;;;10.10;99.90;;;;;;5092806;28;19968;-64
2022/10/20 07:06:33;;;;;;;;;;;10.20;99.90;;;;;;5052035;28;19968;-64
2022/10/20 07:09:02;;;;;;;;;;;10.20;99.90;;;;;;5052028;28;19973;-62
2022/10/20 07:11:32;;;;;;;;;;;10.30;99.90;;;;;;5051853;28;19974;-64
2022/10/20 07:14:00;;;;;;;;;;;10.40;99.90;;;;;;5052321;28;19968;-64
2022/10/20 07:16:28;;;;;;;;;;;10.50;99.90;;;;;;5052437;28;19979;-63
2022/10/20 07:18:56;;;;;;;;;;;10.50;99.90;;;;;;5052577;28;19968;-63
2022/10/20 07:21:25;;;;;;;;;;;10.60;99.90;;;;;;5052150;28;20059;-63
2022/10/20 07:24:01;;;;;;;;;;;10.60;99.90;;;;;;5052325;28;19979;-63
2022/10/20 07:26:30;;;;;;;;;;;10.60;99.90;;;;;;5052304;28;19968;-63
2022/10/20 07:29:00;;;;;;;;;;;10.60;99.90;;;;;;5052065;28;20479;-63
2022/10/20 07:31:29;;;;;;;;;;;10.70;99.90;;;;;;5051672;28;19972;-63
2022/10/20 07:33:58;;;;;;;;;;;10.70;99.90;;;;;;5052232;28;19972;-64
2022/10/20 07:36:41;;;;;;;;;;;10.70;99.90;;;;;;5052326;28;19983;-63
2022/10/20 07:39:10;;;;;;;;;;;10.80;99.90;;;;;;5052086;28;20401;-64
2022/10/20 07:41:39;;;;;;;;;;;10.70;99.90;;;;;;5051742;28;20452;-62
2022/10/20 07:44:08;;;;;;;;;;;10.70;99.90;;;;;;5051752;28;20014;-63
2022/10/20 07:46:35;;;;;;;;;;;10.70;99.90;;;;;;5052136;28;19972;-64
2022/10/20 07:49:03;;;;;;;;;;;10.70;99.90;;;;;;5051884;28;20445;-63
2022/10/20 07:51:51;;;;;;;;;;;10.80;99.90;;;;;;5051477;28;20341;-63
2022/10/20 07:54:19;;;;;;;;;;;10.80;99.90;;;;;;5051588;28;20459;-63
2022/10/20 07:56:48;;;;;;;;;;;10.80;99.90;;;;;;5051859;28;19978;-63
2022/10/20 07:59:17;;;;;;;;;;;10.80;99.90;;;;;;5051816;28;20433;-63
2022/10/20 08:01:44;;;;;;;;;;;10.80;99.90;;;;;;5051429;28;19974;-63
2022/10/20 08:04:12;;;;;;;;;;;10.90;99.90;;;;;;5053589;28;20225;-63
2022/10/20 08:06:40;;;;;;;;;;;10.90;99.90;;;;;;5091410;28;20012;-64
2022/10/20 08:09:08;;;;;;;;;;;10.90;99.90;;;;;;5091807;28;19974;-63
2022/10/20 08:11:35;;;;;;;;;;;11.00;99.90;;;;;;5091937;28;19978;-64
2022/10/20 08:14:03;;;;;;;;;;;11.10;99.90;;;;;;5091760;28;19974;-64
2022/10/20 08:16:33;;;;;;;;;;;11.10;99.90;;;;;;5091761;28;20432;-63
2022/10/20 08:19:25;;;;;;;;;;;11.20;99.90;;;;;;5091840;28;19975;-63
2022/10/20 08:22:10;;;;;;;;;;;11.20;99.90;;;;;;5088835;28;19971;-64
2022/10/20 08:24:38;;;;;;;;;;;11.20;99.90;;;;;;5096251;28;20339;-64
2022/10/20 08:27:05;;;;;;;;;;;11.30;99.90;;;;;;5095921;28;20068;-63
2022/10/20 08:29:33;;;;;;;;;;;11.40;99.90;;;;;;5095642;28;20011;-63
2022/10/20 08:32:03;;;;;;;;;;;11.40;99.90;;;;;;5095642;28;19968;-63
2022/10/20 08:34:31;;;;;;;;;;;11.50;99.90;;;;;;5095885;28;19971;-64
2022/10/20 08:36:59;;;;;;;;;;;11.50;99.90;;;;;;5095695;28;20022;-63
2022/10/20 08:39:27;;;;;;;;;;;11.60;99.90;;;;;;5095629;28;19990;-63
2022/10/20 08:42:02;;;;;;;;;;;11.70;99.90;;;;;;5095129;28;19974;-63
2022/10/20 08:44:36;;;;;;;;;;;11.70;99.90;;;;;;5095697;28;20420;-64
2022/10/20 08:47:13;;;;;;;;;;;11.70;99.90;;;;;;5095822;28;19968;-64
2022/10/20 08:49:40;;;;;;;;;;;11.80;99.90;;;;;;5095315;28;20447;-63
2022/10/20 08:52:11;;;;;;;;;;;11.80;99.90;;;;;;5095048;28;19967;-64
2022/10/20 08:54:39;;;;;;;;;;;11.80;99.90;;;;;;5095249;28;19967;-63
2022/10/20 08:57:15;;;;;;;;;;;11.90;99.90;;;;;;5095511;28;20069;-64
2022/10/20 08:59:43;;;;;;;;;;;11.90;99.90;;;;;;5095034;28;19974;-63
2022/10/20 09:02:15;;;;;;;;;;;11.90;99.90;;;;;;5094983;28;19967;-63
2022/10/20 09:04:47;;;;;;;;;;;12.00;99.90;;;;;;5094920;28;20066;-64
2022/10/20 09:07:20;;;;;;;;;;;12.10;99.90;;;;;;5094823;28;19978;-64
2022/10/20 09:09:47;;;;;;;;;;;12.20;99.90;;;;;;5094934;28;19993;-62
2022/10/20 09:12:16;;;;;;;;;;;12.30;99.90;;;;;;5094773;28;20062;-63
2022/10/20 09:14:44;;;;;;;;;;;12.40;99.90;;;;;;5094853;28;19989;-63
2022/10/20 09:17:15;;;;;;;;;;;12.50;99.90;;;;;;5095061;28;19975;-64
2022/10/20 09:19:45;;;;;;;;;;;12.40;99.90;;;;;;5094715;28;19967;-64
2022/10/20 09:22:13;;;;;;;;;;;12.50;99.90;;;;;;5094590;28;19978;-64
2022/10/20 09:24:42;;;;;;;;;;;12.50;99.90;;;;;;5094762;28;19966;-63
2022/10/20 09:27:21;;;;;;;;;;;12.50;99.90;;;;;;5094794;28;19991;-63
2022/10/20 09:29:48;;;;;;;;;;;12.50;99.90;;;;;;5094439;28;19968;-64
2022/10/20 09:32:19;;;;;;;;;;;12.50;99.90;;;;;;5093581;28;19974;-64
2022/10/20 09:35:12;;;;;;;;;;;12.70;99.90;;;;;;5094321;28;19972;-64
2022/10/20 09:37:39;;;;;;;;;;;12.80;99.90;;;;;;5094625;28;20347;-64
2022/10/20 09:40:13;;;;;;;;;;;12.90;99.90;;;;;;5094082;28;20011;-66
2022/10/20 09:42:45;;;;;;;;;;;12.90;99.90;;;;;;5094388;28;19967;-64
2022/10/20 09:45:17;;;;;;;;;;;12.90;99.90;;;;;;5094323;28;19969;-64
2022/10/20 09:47:48;;;;;;;;;;;13.00;99.90;;;;;;5094378;28;19966;-64
2022/10/20 09:50:19;;;;;;;;;;;12.90;99.90;;;;;;5093956;28;20332;-65
2022/10/20 09:52:47;;;;;;;;;;;12.90;99.90;;;;;;5094160;28;20050;-64
2022/10/20 09:55:26;;;;;;;;;;;12.90;99.90;;;;;;5094314;28;19968;-63
2022/10/20 09:57:54;;;;;;;;;;;12.90;99.90;;;;;;5094160;28;20003;-63
2022/10/20 10:00:23;;;;;;;;;;;13.00;99.90;;;;;;5093731;28;20062;-64
2022/10/20 10:03:18;;;;;;;;;;;13.00;99.90;;;;;;5094308;28;19974;-64
2022/10/20 10:05:47;;;;;;;;;;;13.10;99.90;;;;;;5093839;28;19974;-64
2022/10/20 10:08:15;;;;;;;;;;;13.00;99.90;;;;;;5093581;28;19968;-63
2022/10/20 10:10:43;;;;;;;;;;;12.90;99.90;;;;;;5093324;28;19967;-64
2022/10/20 10:13:23;;;;;;;;;;;12.90;99.90;;;;;;5094698;28;19968;-64
2022/10/20 10:16:02;;;;;;;;;;;12.90;99.90;;;;;;5093909;28;20396;-64
2022/10/20 10:18:31;;;;;;;;;;;12.90;99.90;;;;;;5093669;28;19994;-64
2022/10/20 10:21:00;;;;;;;;;;;12.90;99.90;;;;;;5093203;28;19977;-64
2022/10/20 10:23:29;;;;;;;;;;;12.90;99.90;;;;;;5093559;28;20440;-64
2022/10/20 10:25:57;;;;;;;;;;;12.90;99.90;;;;;;5093545;28;20348;-64
2022/10/20 10:28:40;;;;;;;;;;;12.90;99.90;;;;;;5093765;28;20066;-62
2022/10/20 10:31:23;;;;;;;;;;;12.90;99.90;;;;;;5093279;28;20508;-63
2022/10/20 10:33:54;;;;;;;;;;;12.90;99.90;;;;;;5093938;28;20025;-64
2022/10/20 10:36:28;;;;;;;;;;;13.00;99.90;;;;;;5093318;28;20446;-63
2022/10/20 10:38:57;;;;;;;;;;;13.00;99.90;;;;;;5093550;28;19972;-64
2022/10/20 10:41:31;;;;;;;;;;;13.00;99.90;;;;;;5092835;28;19971;-64
2022/10/20 10:44:02;;;;;;;;;;;13.10;99.90;;;;;;5093082;28;20034;-63
2022/10/20 10:46:35;;;;;;;;;;;13.10;99.90;;;;;;5093248;28;20481;-64
2022/10/20 10:49:21;;;;;;;;;;;13.20;99.90;;;;;;5093189;28;19967;-64
2022/10/20 10:51:55;;;;;;;;;;;13.20;99.90;;;;;;5092602;28;19971;-64
2022/10/20 10:54:29;;;;;;;;;;;13.30;99.90;;;;;;5092857;28;20344;-63
2022/10/20 10:56:59;;;;;;;;;;;13.30;99.90;;;;;;5093189;28;20329;-64
2022/10/20 10:59:28;;;;;;;;;;;13.30;99.90;;;;;;5093268;28;20344;-64
2022/10/20 11:02:11;;;;;;;;;;;13.40;99.90;;;;;;5092500;28;20444;-63
2022/10/20 11:04:48;;;;;;;;;;;13.30;99.90;;;;;;5115563;22;19971;-64
2022/10/20 11:07:22;;;;;;;;;;;13.50;99.90;;;;;;5049899;28;20063;-65
2022/10/20 11:09:57;;;;;;;;;;;13.70;99.90;;;;;;5052309;28;19968;-65
2022/10/20 11:12:33;;;;;;;;;;;14.10;99.90;;;;;;5052590;28;19978;-65
2022/10/20 11:15:08;;;;;;;;;;;14.40;99.90;;;;;;5052485;28;19998;-65
2022/10/20 11:17:42;;;;;;;;;;;14.40;99.90;;;;;;5052582;28;19975;-65
2022/10/20 11:20:19;;;;;;;;;;;14.50;99.90;;;;;;5052371;28;19968;-65
2022/10/20 11:22:59;;;;;;;;;;;14.50;99.90;;;;;;5052037;28;19968;-65
2022/10/20 11:25:32;;;;;;;;;;;14.30;99.90;;;;;;5052181;28;19982;-67
2022/10/20 11:28:00;;;;;;;;;;;14.20;99.90;;;;;;5052297;28;20412;-65
2022/10/20 11:30:29;;;;;;;;;;;14.20;99.90;;;;;;5052011;28;20359;-65
2022/10/20 11:32:59;;;;;;;;;;;14.20;99.90;;;;;;5052122;28;19974;-65
2022/10/20 11:35:31;;;;;;;;;;;14.10;99.90;;;;;;5052083;28;20169;-65
2022/10/20 11:38:10;;;;;;;;;;;14.10;99.90;;;;;;5052456;28;19974;-65
2022/10/20 11:40:39;;;;;;;;;;;14.00;99.90;;;;;;5051943;28;20066;-65
2022/10/20 11:43:11;;;;;;;;;;;14.10;99.90;;;;;;5051910;28;20078;-63
2022/10/20 11:45:42;;;;;;;;;;;14.00;99.90;;;;;;5052511;28;19968;-63
2022/10/20 11:48:12;;;;;;;;;;;13.90;99.90;;;;;;5052109;28;19968;-63
2022/10/20 11:50:42;;;;;;;;;;;13.90;99.90;;;;;;5052186;28;20479;-65
2022/10/20 11:53:23;;;;;;;;;;;14.00;99.90;;;;;;5051851;28;19968;-65
2022/10/20 11:56:05;;;;;;;;;;;13.90;99.90;;;;;;5051550;28;19972;-64
2022/10/20 11:58:53;;;;;;;;;;;13.90;99.90;;;;;;5049803;28;20086;-65
2022/10/20 12:01:25;;;;;;;;;;;13.90;99.90;;;;;;5051639;28;19973;-65
2022/10/20 12:04:13;;;;;;;;;;;13.90;99.90;;;;;;5051847;28;19968;-65
2022/10/20 12:06:50;;;;;;;;;;;13.90;99.90;;;;;;5051295;28;19972;-65
2022/10/20 12:09:36;;;;;;;;;;;13.80;99.90;;;;;;5051918;28;20440;-65
2022/10/20 12:12:07;;;;;;;;;;;13.80;99.90;;;;;;5052015;28;20325;-65
2022/10/20 12:14:37;;;;;;;;;;;13.80;99.90;;;;;;5051822;28;19968;-65
2022/10/20 12:17:11;;;;;;;;;;;13.80;99.90;;;;;;5051751;28;20360;-65
2022/10/20 12:19:39;;;;;;;;;;;13.80;99.90;;;;;;5051681;28;20542;-64
2022/10/20 12:22:26;;;;;;;;;;;13.90;99.90;;;;;;5051598;28;20011;-65
2022/10/20 12:25:09;;;;;;;;;;;13.90;99.90;;;;;;5051543;28;19979;-65
2022/10/20 12:27:38;;;;;;;;;;;14.00;99.90;;;;;;5051618;28;19968;-64
2022/10/20 12:30:21;;;;;;;;;;;14.00;99.90;;;;;;5051355;28;19972;-65
2022/10/20 12:32:53;;;;;;;;;;;14.00;99.90;;;;;;5050701;28;19992;-65
2022/10/20 12:35:41;;;;;;;;;;;14.00;99.90;;;;;;5051555;28;19967;-65
2022/10/20 12:38:15;;;;;;;;;;;13.90;99.90;;;;;;5051633;28;19994;-64
2022/10/20 12:40:45;;;;;;;;;;;13.90;99.90;;;;;;5051506;28;19968;-65
2022/10/20 12:43:24;;;;;;;;;;;13.80;99.90;;;;;;5051376;28;19975;-65
2022/10/20 12:45:57;;;;;;;;;;;13.70;99.90;;;;;;5051532;28;19968;-65
2022/10/20 12:48:25;;;;;;;;;;;13.70;99.90;;;;;;5051447;28;19968;-65
2022/10/20 12:50:53;;;;;;;;;;;13.80;99.90;;;;;;5051236;28;19968;-65
2022/10/20 12:53:24;;;;;;;;;;;13.90;99.90;;;;;;5051292;28;20353;-65
2022/10/20 12:55:55;;;;;;;;;;;13.90;99.90;;;;;;5051415;28;19967;-65
2022/10/20 12:58:29;;;;;;;;;;;13.90;99.90;;;;;;5051309;28;19968;-65
2022/10/20 13:01:01;;;;;;;;;;;13.80;99.90;;;;;;5051192;28;19994;-65
2022/10/20 13:03:37;;;;;;;;;;;13.80;99.90;;;;;;5051246;28;20003;-65
2022/10/20 13:06:19;;;;;;;;;;;13.90;99.90;;;;;;5051007;28;20071;-64
2022/10/20 13:09:02;;;;;;;;;;;13.90;99.90;;;;;;5053630;28;19997;-65
2022/10/20 13:11:41;;;;;;;;;;;13.90;99.90;;;;;;5054207;28;19972;-66
2022/10/20 13:14:29;;;;;;;;;;;13.90;99.90;;;;;;5055050;28;19979;-65
2022/10/20 13:17:05;;;;;;;;;;;13.90;99.90;;;;;;5049731;28;20012;-65
2022/10/20 13:19:36;;;;;;;;;;;13.90;99.90;;;;;;5054743;28;20054;-65
2022/10/20 13:22:22;;;;;;;;;;;13.90;99.90;;;;;;5054667;28;20006;-65
2022/10/20 13:24:50;;;;;;;;;;;13.80;99.90;;;;;;5054674;28;19982;-65
2022/10/20 13:27:23;;;;;;;;;;;13.80;99.90;;;;;;5054631;28;19974;-65
2022/10/20 13:29:51;;;;;;;;;;;13.70;99.90;;;;;;5054524;28;20395;-64
2022/10/20 13:32:22;;;;;;;;;;;13.60;99.90;;;;;;5054267;28;20018;-65
2022/10/20 13:34:52;;;;;;;;;;;13.70;99.90;;;;;;5054670;28;20471;-65
2022/10/20 13:37:27;;;;;;;;;;;13.60;99.90;;;;;;5054479;28;20008;-64
2022/10/20 13:40:02;;;;;;;;;;;13.60;99.90;;;;;;5054262;28;19974;-65
2022/10/20 13:42:34;;;;;;;;;;;13.70;99.90;;;;;;5054132;28;20063;-64
2022/10/20 13:45:05;;;;;;;;;;;13.60;99.90;;;;;;5054322;28;20342;-65
2022/10/20 13:47:42;;;;;;;;;;;13.60;99.90;;;;;;5054245;28;19976;-65
2022/10/20 13:50:11;;;;;;;;;;;13.50;99.90;;;;;;5054122;28;19975;-65
2022/10/20 13:52:40;;;;;;;;;;;13.50;99.90;;;;;;5053758;28;19972;-65
2022/10/20 13:55:14;;;;;;;;;;;13.50;99.90;;;;;;5054040;28;20024;-65
2022/10/20 13:57:48;;;;;;;;;;;13.50;99.90;;;;;;5054172;28;20452;-65
2022/10/20 14:00:23;;;;;;;;;;;13.40;99.90;;;;;;5053946;28;20003;-64
2022/10/20 14:02:57;;;;;;;;;;;13.50;99.90;;;;;;5053550;28;19972;-64
2022/10/20 14:05:25;;;;;;;;;;;13.50;99.90;;;;;;5053598;28;19975;-65
2022/10/20 14:07:53;;;;;;;;;;;13.40;99.90;;;;;;5053502;28;20015;-65
2022/10/20 14:10:23;;;;;;;;;;;13.40;99.90;;;;;;5053651;28;20360;-65
2022/10/20 14:12:51;;;;;;;;;;;13.30;99.90;;;;;;5053430;28;20023;-64
2022/10/20 14:15:22;;;;;;;;;;;13.30;99.90;;;;;;5053537;28;20419;-65
2022/10/20 14:17:59;;;;;;;;;;;13.20;99.90;;;;;;5053348;28;20655;-65
2022/10/20 14:20:28;;;;;;;;;;;13.30;99.90;;;;;;5053169;28;20364;-64
2022/10/20 14:22:57;;;;;;;;;;;13.30;99.90;;;;;;5053881;28;20378;-64
2022/10/20 14:25:25;;;;;;;;;;;13.30;99.90;;;;;;5053292;28;19980;-65
2022/10/20 14:27:53;;;;;;;;;;;13.20;99.90;;;;;;5053594;28;19972;-65
2022/10/20 14:30:22;;;;;;;;;;;13.20;99.90;;;;;;5053214;28;19967;-64
2022/10/20 14:32:51;;;;;;;;;;;13.20;99.90;;;;;;5053091;28;19979;-64
2022/10/20 14:35:25;;;;;;;;;;;13.20;99.90;;;;;;5053158;28;19968;-64
2022/10/20 14:37:55;;;;;;;;;;;13.10;99.90;;;;;;5053250;28;20384;-64
2022/10/20 14:40:24;;;;;;;;;;;13.10;99.90;;;;;;5053020;28;19968;-64
2022/10/20 14:42:56;;;;;;;;;;;13.10;99.90;;;;;;5052939;28;20371;-64